Time;durP1;ratioP1;P1;durP2;ratioP2;P2;SDS_P1;SDS_P2;PMS_P1;PMS_P2;Temp;Humidity;BMP_temperature;BMP_pressure;BME280_temperature;BME280_humidity;BME280_pressure;Samples;Min_cycle;Max_cycle;Signal;HPM_P1;HPM_P2
2023/01/21 03:03:39;;;;;;;75.25;28.40;;;;;;;-145.18;100.00;46732.66;6117755;23;20029;-78
2023/01/21 03:06:28;;;;;;;80.68;28.13;;;;;;;-145.18;100.00;46732.66;6123040;23;20020;-78
2023/01/21 03:09:22;;;;;;;68.57;27.23;;;;;;;-145.18;100.00;46726.81;6123005;23;20010;-77
2023/01/21 03:11:58;;;;;;;68.53;27.58;;;;;;;-145.18;100.00;46726.81;6122786;23;20009;-78
2023/01/21 03:17:32;;;;;;;66.78;27.33;;;;;;;-145.18;100.00;46732.66;6123488;23;20021;-78
2023/01/21 03:20:11;;;;;;;73.95;28.27;;;;;;;-145.18;100.00;46734.63;6123051;23;20029;-79
2023/01/21 03:22:38;;;;;;;70.53;27.10;;;;;;;-145.18;100.00;46734.63;6123285;23;20396;-78
2023/01/21 03:25:06;;;;;;;72.22;26.23;;;;;;;-145.18;100.00;46726.81;6123521;23;20117;-78
2023/01/21 03:27:32;;;;;;;73.00;28.65;;;;;;;-145.18;100.00;46732.66;6123525;23;20008;-78
2023/01/21 03:30:20;;;;;;;69.70;27.27;;;;;;;-145.18;100.00;46726.81;6123375;23;20033;-79
2023/01/21 03:32:49;;;;;;;64.15;26.92;;;;;;;-145.18;100.00;46726.81;6123249;23;20005;-78
2023/01/21 03:35:37;;;;;;;68.47;26.52;;;;;;;-145.18;100.00;46728.75;6123616;23;20076;-79
2023/01/21 03:38:10;;;;;;;66.05;24.75;;;;;;;-145.18;100.00;46732.66;6123081;23;20813;-79
2023/01/21 03:40:41;;;;;;;65.82;26.40;;;;;;;-145.18;100.00;46726.81;6123694;23;20014;-79
2023/01/21 03:43:06;;;;;;;72.82;26.52;;;;;;;-145.18;100.00;46724.84;6123073;23;20006;-79
2023/01/21 03:46:03;;;;;;;68.40;25.87;;;;;;;-145.18;100.00;46728.75;6123609;23;20057;-79
2023/01/21 03:49:01;;;;;;;70.88;25.15;;;;;;;-145.18;100.00;46726.81;6109777;23;20006;-79
2023/01/21 03:51:36;;;;;;;71.53;27.00;;;;;;;-145.18;100.00;46728.75;6123787;23;20009;-79
2023/01/21 03:54:01;;;;;;;76.13;29.03;;;;;;;-145.18;100.00;46732.66;6122783;23;20017;-79
2023/01/21 03:56:27;;;;;;;67.40;27.73;;;;;;;-145.18;100.00;46724.84;6123596;23;20228;-79
2023/01/21 03:58:53;;;;;;;60.50;26.20;;;;;;;-145.18;100.00;46732.66;6123077;23;20018;-78
2023/01/21 04:01:19;;;;;;;64.90;25.73;;;;;;;-145.18;100.00;46724.84;6123422;23;20010;-79
2023/01/21 04:03:45;;;;;;;66.00;24.77;;;;;;;-145.18;100.00;46726.81;6122626;23;20252;-79
2023/01/21 04:06:14;;;;;;;74.87;26.87;;;;;;;-145.18;100.00;46726.81;6123537;23;20009;-79
2023/01/21 04:08:40;;;;;;;75.32;26.38;;;;;;;-145.18;100.00;46728.75;6122456;23;20002;-79
2023/01/21 04:11:05;;;;;;;61.93;24.10;;;;;;;-145.18;100.00;46726.81;6123180;23;20021;-80
2023/01/21 04:13:30;;;;;;;69.40;26.13;;;;;;;-145.18;100.00;46736.56;6123298;23;20065;-80
2023/01/21 04:15:56;;;;;;;62.57;26.07;;;;;;;-145.18;100.00;46736.56;6123284;23;20422;-80
2023/01/21 04:18:21;;;;;;;67.43;25.73;;;;;;;-145.18;100.00;46732.66;6122759;23;20006;-80
2023/01/21 04:20:47;;;;;;;66.20;24.63;;;;;;;-145.18;100.00;46732.66;6123185;23;20010;-80
2023/01/21 04:23:12;;;;;;;70.67;26.13;;;;;;;-145.18;100.00;46724.84;6122955;23;20006;-79
2023/01/21 04:25:37;;;;;;;63.27;24.83;;;;;;;-145.18;100.00;46732.66;6123311;23;20611;-80
2023/01/21 04:28:03;;;;;;;68.00;26.77;;;;;;;-145.18;100.00;46724.84;6122511;23;20018;-80
2023/01/21 04:30:28;;;;;;;73.37;25.73;;;;;;;-145.18;100.00;46724.84;6123256;23;20163;-80
2023/01/21 04:32:53;;;;;;;62.03;25.27;;;;;;;-145.18;100.00;46724.84;6122596;23;20042;-80
2023/01/21 04:35:19;;;;;;;62.20;24.67;;;;;;;-145.18;100.00;46724.84;6122997;23;20055;-80
2023/01/21 04:37:44;;;;;;;67.73;26.57;;;;;;;-145.18;100.00;46726.81;6122824;23;20017;-80
2023/01/21 04:40:10;;;;;;;67.50;24.63;;;;;;;-145.18;100.00;46724.84;6122973;23;20033;-80
2023/01/21 04:42:36;;;;;;;62.47;24.95;;;;;;;-145.18;100.00;46728.75;6122681;23;20089;-80
2023/01/21 04:45:01;;;;;;;70.57;25.47;;;;;;;-145.18;100.00;46724.84;6122768;23;20030;-80
2023/01/21 04:47:26;;;;;;;60.03;24.17;;;;;;;-145.18;100.00;46736.56;6122673;23;20366;-80
2023/01/21 04:49:52;;;;;;;66.43;26.07;;;;;;;-145.18;100.00;46732.66;6122747;23;20016;-81
2023/01/21 04:52:17;;;;;;;63.93;25.77;;;;;;;-145.18;100.00;46724.84;6122619;23;20017;-81
2023/01/21 04:54:43;;;;;;;63.80;25.00;;;;;;;-145.18;100.00;46726.81;6122905;23;20085;-81
2023/01/21 04:57:09;;;;;;;64.47;24.77;;;;;;;-145.18;100.00;46724.84;6122492;23;20005;-81
2023/01/21 04:59:35;;;;;;;66.10;24.70;;;;;;;-145.18;100.00;46738.53;6122736;23;20013;-81
2023/01/21 05:02:00;;;;;;;64.80;23.83;;;;;;;-145.18;100.00;46724.84;6122228;23;20596;-81
2023/01/21 05:04:26;;;;;;;65.27;25.10;;;;;;;-145.18;100.00;46728.75;6121067;23;20014;-81
2023/01/21 05:06:51;;;;;;;69.10;25.37;;;;;;;-145.18;100.00;46724.84;6123100;23;20335;-81
2023/01/21 05:09:16;;;;;;;62.60;25.07;;;;;;;-145.18;100.00;46726.81;6122502;23;20449;-81
2023/01/21 05:11:42;;;;;;;70.27;26.40;;;;;;;-145.18;100.00;46732.66;6122601;23;20743;-81
2023/01/21 05:14:07;;;;;;;60.23;24.37;;;;;;;-145.18;100.00;46722.91;6122395;23;20013;-81
2023/01/21 05:16:32;;;;;;;74.07;27.23;;;;;;;-145.18;100.00;46726.81;6122843;23;20020;-81
2023/01/21 05:18:58;;;;;;;78.50;27.77;;;;;;;-145.18;100.00;46734.63;6122231;23;20006;-80
2023/01/21 05:21:23;;;;;;;69.73;26.30;;;;;;;-145.18;100.00;46726.81;6122712;23;20481;-81
2023/01/21 05:23:49;;;;;;;76.67;27.47;;;;;;;-145.18;100.00;46734.63;6122031;23;20040;-80
2023/01/21 05:26:14;;;;;;;77.30;28.43;;;;;;;-145.18;100.00;46726.81;6123097;23;20476;-80
2023/01/21 05:28:39;;;;;;;73.10;26.73;;;;;;;-145.18;100.00;46726.81;6121878;23;20014;-80
2023/01/21 05:31:05;;;;;;;79.40;28.13;;;;;;;-145.18;100.00;46722.91;6120203;23;20498;-79
2023/01/21 05:33:34;;;;;;;70.40;27.30;;;;;;;-145.18;100.00;46726.81;6121848;23;20006;-79
2023/01/21 05:36:01;;;;;;;79.38;27.00;;;;;;;-145.18;100.00;46726.81;6121876;23;20009;-79
2023/01/21 05:38:27;;;;;;;76.38;28.38;;;;;;;-145.18;100.00;46726.81;6122110;23;20010;-79
2023/01/21 05:41:00;;;;;;;80.75;27.80;;;;;;;-145.18;100.00;46722.91;6122131;23;20014;-79
2023/01/21 05:43:26;;;;;;;76.15;28.08;;;;;;;-145.18;100.00;46726.81;6119238;23;20089;-78
2023/01/21 05:45:51;;;;;;;78.27;27.47;;;;;;;-145.18;100.00;46726.81;6121887;23;20033;-79
2023/01/21 05:48:17;;;;;;;81.87;28.73;;;;;;;-145.18;100.00;46722.91;6121936;23;20014;-78
2023/01/21 05:50:42;;;;;;;72.97;26.93;;;;;;;-145.18;100.00;46720.94;6121555;23;20014;-78
2023/01/21 05:53:08;;;;;;;78.80;28.20;;;;;;;-145.18;100.00;46724.84;6121696;23;20455;-78
2023/01/21 05:55:35;;;;;;;76.63;26.37;;;;;;;-145.18;100.00;46724.84;6120497;23;20043;-78
2023/01/21 05:58:00;;;;;;;67.88;26.15;;;;;;;-145.18;100.00;46726.81;6121254;23;20013;-79
2023/01/21 06:00:26;;;;;;;68.93;24.80;;;;;;;-145.18;100.00;46722.91;6121922;23;20018;-78
2023/01/21 06:02:51;;;;;;;70.23;26.53;;;;;;;-145.18;100.00;46724.84;6127267;23;20018;-77
2023/01/21 06:05:16;;;;;;;64.67;26.03;;;;;;;-145.18;100.00;46726.81;6120719;23;20017;-78
2023/01/21 06:07:43;;;;;;;76.88;27.02;;;;;;;-145.18;100.00;46722.91;6122317;23;20018;-77
2023/01/21 06:10:09;;;;;;;76.57;25.77;;;;;;;-145.18;100.00;46722.91;6122096;23;20494;-78
2023/01/21 06:12:34;;;;;;;82.10;27.93;;;;;;;-145.18;100.00;46724.84;6122248;23;20014;-77
2023/01/21 06:14:59;;;;;;;75.63;27.67;;;;;;;-145.18;100.00;46722.91;6122224;23;20013;-77
2023/01/21 06:17:25;;;;;;;78.03;27.80;;;;;;;-145.18;100.00;46722.91;6122386;23;20010;-77
2023/01/21 06:19:50;;;;;;;74.77;27.70;;;;;;;-145.18;100.00;46724.84;6121958;23;20150;-76
2023/01/21 06:22:17;;;;;;;80.03;29.43;;;;;;;-145.18;100.00;46719.00;6122149;23;20137;-77
2023/01/21 06:24:43;;;;;;;91.82;28.50;;;;;;;-145.18;100.00;46722.91;6122146;23;20016;-76
2023/01/21 06:27:08;;;;;;;77.47;27.93;;;;;;;-145.18;100.00;46717.03;6122051;23;20077;-76
2023/01/21 06:29:34;;;;;;;79.70;28.43;;;;;;;-145.18;100.00;46724.84;6122019;23;20018;-76
2023/01/21 06:31:59;;;;;;;81.60;29.03;;;;;;;-145.18;100.00;46724.84;6122195;23;20592;-76
2023/01/21 06:34:24;;;;;;;81.73;30.13;;;;;;;-145.18;100.00;46726.81;6121734;23;20013;-76
2023/01/21 06:36:50;;;;;;;81.03;28.10;;;;;;;-145.18;100.00;46722.91;6121814;23;20053;-76
2023/01/21 06:39:15;;;;;;;78.53;28.17;;;;;;;-145.18;100.00;46719.00;6120181;23;20372;-76
2023/01/21 06:41:40;;;;;;;85.63;29.03;;;;;;;-145.18;100.00;46722.91;6122127;23;20371;-77
2023/01/21 06:44:06;;;;;;;80.27;28.10;;;;;;;-145.18;100.00;46722.91;6121749;23;20017;-77
2023/01/21 06:46:31;;;;;;;83.40;29.67;;;;;;;-145.18;100.00;46720.94;6122333;23;20323;-76
2023/01/21 06:48:57;;;;;;;80.30;28.27;;;;;;;-145.18;100.00;46720.94;6121804;23;20469;-77
2023/01/21 06:51:22;;;;;;;89.47;29.27;;;;;;;-145.18;100.00;46717.03;6122485;23;20021;-76
2023/01/21 06:53:48;;;;;;;85.73;30.00;;;;;;;-145.18;100.00;46719.00;6122214;23;20020;-76
2023/01/21 06:56:13;;;;;;;84.47;28.67;;;;;;;-145.18;100.00;46722.91;6124210;23;20032;-76
2023/01/21 06:58:38;;;;;;;81.57;28.73;;;;;;;-145.18;100.00;46722.91;6122002;23;20020;-76
2023/01/21 07:01:04;;;;;;;82.13;27.80;;;;;;;-145.18;100.00;46720.94;6123809;23;20057;-76
2023/01/21 07:03:29;;;;;;;81.70;27.80;;;;;;;-145.18;100.00;46722.91;6123505;23;20089;-76
2023/01/21 07:05:55;;;;;;;84.30;30.03;;;;;;;-145.18;100.00;46719.00;6123734;23;20069;-76
2023/01/21 07:08:20;;;;;;;85.60;30.13;;;;;;;-145.18;100.00;46722.91;6123443;23;20462;-77
2023/01/21 07:10:45;;;;;;;87.10;28.67;;;;;;;-145.18;100.00;46722.91;6112748;23;20022;-76
2023/01/21 07:13:11;;;;;;;89.23;29.77;;;;;;;-145.18;100.00;46720.94;6121518;23;20017;-77
2023/01/21 07:15:36;;;;;;;71.33;26.30;;;;;;;-145.18;100.00;46719.00;6122881;23;20006;-77
2023/01/21 07:18:02;;;;;;;84.20;29.80;;;;;;;-145.18;100.00;46720.94;6121312;23;20392;-76
2023/01/21 07:20:27;;;;;;;78.00;27.57;;;;;;;-145.18;100.00;46719.00;6122564;23;20077;-76
2023/01/21 07:22:52;;;;;;;93.50;29.93;;;;;;;-145.18;100.00;46719.00;6115475;23;20041;-76
2023/01/21 07:25:18;;;;;;;83.67;29.63;;;;;;;-145.18;100.00;46719.00;6122779;23;20069;-77
2023/01/21 07:27:43;;;;;;;90.07;29.17;;;;;;;-145.18;100.00;46715.09;6122955;23;20021;-77
2023/01/21 07:30:14;;;;;;;83.27;28.00;;;;;;;-145.18;100.00;46722.91;6122766;23;20018;-78
2023/01/21 07:32:40;;;;;;;79.85;28.67;;;;;;;-145.18;100.00;46722.91;6122496;23;19998;-78
2023/01/21 07:35:06;;;;;;;84.33;30.73;;;;;;;-145.18;100.00;46719.00;6121223;23;20018;-79
2023/01/21 07:37:31;;;;;;;78.40;27.53;;;;;;;-145.18;100.00;46720.94;6122775;23;20014;-80
2023/01/21 07:39:56;;;;;;;80.47;27.90;;;;;;;-145.18;100.00;46719.00;6122475;23;20543;-80
2023/01/21 07:42:22;;;;;;;94.07;30.20;;;;;;;-145.18;100.00;46717.03;6121400;23;20096;-80
2023/01/21 07:44:47;;;;;;;78.50;25.90;;;;;;;-145.18;100.00;46717.03;6121592;23;20005;-80
2023/01/21 07:47:13;;;;;;;84.87;30.97;;;;;;;-145.18;100.00;46717.03;6123145;23;20006;-81
2023/01/21 07:49:39;;;;;;;79.20;27.33;;;;;;;-145.18;100.00;46717.03;6121123;23;20448;-81
2023/01/21 07:52:04;;;;;;;78.78;28.23;;;;;;;-145.18;100.00;46720.94;6122602;23;20689;-82
2023/01/21 07:54:30;;;;;;;89.60;29.53;;;;;;;-145.18;100.00;46720.94;6122813;23;20056;-83
2023/01/21 07:56:55;;;;;;;108.17;32.53;;;;;;;-145.18;100.00;46720.94;6122146;23;20017;-84
2023/01/21 07:59:21;;;;;;;103.43;32.67;;;;;;;-145.18;100.00;46717.03;6122666;23;20332;-72
2023/01/21 08:01:46;;;;;;;111.13;33.40;;;;;;;-145.18;100.00;46717.03;6120641;23;20014;-71
2023/01/21 08:04:11;;;;;;;112.43;34.13;;;;;;;-145.18;100.00;46720.94;6122340;23;20343;-71
2023/01/21 08:06:39;;;;;;;107.47;34.83;;;;;;;-145.18;100.00;46715.09;6122727;23;20014;-71
2023/01/21 08:09:05;;;;;;;125.10;43.38;;;;;;;-145.18;100.00;46715.09;6122146;23;20435;-72
2023/01/21 08:11:30;;;;;;;121.57;44.80;;;;;;;-145.18;100.00;46715.09;6122505;23;20017;-71
2023/01/21 08:13:56;;;;;;;113.90;41.47;;;;;;;-145.18;100.00;46715.09;6122072;23;20005;-71
2023/01/21 08:16:21;;;;;;;117.43;40.27;;;;;;;-145.18;100.00;46715.09;6122642;23;20068;-71
2023/01/21 08:18:47;;;;;;;157.27;36.63;;;;;;;-145.18;100.00;46715.09;6122339;23;20009;-71
2023/01/21 08:21:12;;;;;;;188.10;35.93;;;;;;;-145.18;100.00;46713.13;6122194;23;20014;-71
2023/01/21 08:23:37;;;;;;;144.43;35.67;;;;;;;-145.18;100.00;46713.13;6122294;23;20010;-71
2023/01/21 08:26:05;;;;;;;110.93;33.03;;;;;;;-145.18;100.00;46715.09;6121828;23;20009;-71
2023/01/21 08:28:31;;;;;;;213.75;36.80;;;;;;;-145.18;100.00;46709.22;6122521;23;20033;-72
2023/01/21 08:31:08;;;;;;;117.83;32.77;;;;;;;-145.18;100.00;46715.09;6121973;23;20432;-71
2023/01/21 08:33:34;;;;;;;139.93;30.65;;;;;;;-145.18;100.00;46707.28;6122483;23;20138;-72
2023/01/21 08:36:01;;;;;;;183.67;36.93;;;;;;;-145.18;100.00;46707.28;6122154;23;20417;-72
2023/01/21 08:38:26;;;;;;;188.60;33.13;;;;;;;-145.18;100.00;46709.22;6121930;23;20020;-71
2023/01/21 08:40:52;;;;;;;141.27;31.83;;;;;;;-145.18;100.00;46711.19;6121589;23;20326;-72
2023/01/21 08:43:17;;;;;;;304.50;36.50;;;;;;;-145.18;100.00;46703.38;6120443;23;20006;-72
2023/01/21 08:45:42;;;;;;;215.47;37.10;;;;;;;-145.18;100.00;46703.38;6119686;23;20475;-72
2023/01/21 08:48:08;;;;;;;439.37;40.43;;;;;;;-145.18;100.00;46705.31;6120659;23;20013;-73
2023/01/21 08:50:33;;;;;;;270.47;35.30;;;;;;;-145.18;100.00;46707.28;6120632;23;20067;-73
2023/01/21 08:52:59;;;;;;;133.40;32.03;;;;;;;-145.18;100.00;46705.31;6120802;23;20636;-72
2023/01/21 08:55:25;;;;;;;270.63;39.00;;;;;;;-145.18;100.00;46705.31;6121145;23;20006;-73
2023/01/21 08:57:53;;;;;;;171.63;39.30;;;;;;;-145.18;100.00;46701.41;6121877;23;20040;-72
2023/01/21 09:00:19;;;;;;;179.25;34.53;;;;;;;-145.18;100.00;46705.31;6122275;23;20090;-72
2023/01/21 09:02:44;;;;;;;225.65;36.25;;;;;;;-145.18;100.00;46701.41;6121304;23;20014;-72
2023/01/21 09:05:10;;;;;;;174.30;35.03;;;;;;;-145.18;100.00;46697.50;6120434;23;20451;-73
2023/01/21 09:07:36;;;;;;;227.07;47.27;;;;;;;-145.18;100.00;46701.41;6122353;23;20017;-72
2023/01/21 09:10:03;;;;;;;180.37;34.50;;;;;;;-145.18;100.00;46701.41;6121481;23;20006;-73
2023/01/21 09:12:28;;;;;;;227.57;34.00;;;;;;;-145.18;100.00;46699.47;6122042;23;20006;-73
2023/01/21 09:14:53;;;;;;;279.97;36.73;;;;;;;-145.18;100.00;46701.41;6120937;23;20478;-72
2023/01/21 09:17:19;;;;;;;308.33;40.83;;;;;;;-145.18;100.00;46697.50;6121653;23;20013;-73
2023/01/21 09:19:44;;;;;;;146.67;30.30;;;;;;;-145.18;100.00;46697.50;6121700;23;20415;-73
2023/01/21 09:22:09;;;;;;;201.77;36.47;;;;;;;-145.18;100.00;46699.47;6121485;23;20423;-73
2023/01/21 09:24:35;;;;;;;157.00;33.13;;;;;;;-145.18;100.00;46693.59;6121792;23;20024;-73
2023/01/21 09:27:00;;;;;;;154.20;31.70;;;;;;;-145.18;100.00;46697.50;6119490;23;20121;-73
2023/01/21 09:29:26;;;;;;;162.90;33.13;;;;;;;-145.18;100.00;46693.59;6119318;23;20014;-73
2023/01/21 09:31:51;;;;;;;183.40;32.57;;;;;;;-145.18;100.00;46699.47;6120495;23;20006;-73
2023/01/21 09:34:16;;;;;;;155.53;34.43;;;;;;;-145.18;100.00;46697.50;6120220;23;20375;-73
2023/01/21 09:36:42;;;;;;;168.97;33.80;;;;;;;-145.18;100.00;46691.66;6120054;23;20085;-73
2023/01/21 09:39:07;;;;;;;170.53;39.20;;;;;;;-145.18;100.00;46695.56;6118410;23;20021;-73
2023/01/21 09:42:02;;;;;;;186.43;42.53;;;;;;;-145.18;100.00;46695.56;6121570;23;20049;-73
2023/01/21 09:44:43;;;;;;;208.07;39.78;;;;;;;-145.18;100.00;46695.56;6108546;23;20510;-73
2023/01/21 09:47:31;;;;;;;191.80;39.08;;;;;;;-145.18;100.00;46697.50;6120897;23;20010;-73
2023/01/21 09:50:04;;;;;;;175.27;40.38;;;;;;;-145.18;100.00;46695.56;6120973;23;20014;-73
2023/01/21 09:52:39;;;;;;;176.20;39.40;;;;;;;-145.18;100.00;46695.56;6119630;23;20006;-73
2023/01/21 09:55:13;;;;;;;174.85;39.30;;;;;;;-145.18;100.00;46693.59;6117474;23;20442;-73
2023/01/21 09:57:44;;;;;;;175.48;41.75;;;;;;;-145.18;100.00;46695.56;6122201;23;20002;-73
2023/01/21 10:00:13;;;;;;;155.60;38.95;;;;;;;-145.18;100.00;46693.59;6121712;23;20088;-73
2023/01/21 10:02:44;;;;;;;159.10;40.45;;;;;;;-145.18;100.00;46695.56;6121718;23;20045;-73
2023/01/21 10:05:40;;;;;;;188.27;41.55;;;;;;;-145.18;100.00;46697.50;6120785;23;20006;-73
2023/01/21 10:08:34;;;;;;;177.30;41.35;;;;;;;-145.18;100.00;46695.56;6121494;23;20013;-73
2023/01/21 10:11:20;;;;;;;182.35;42.13;;;;;;;-145.18;100.00;46693.59;6119701;23;20079;-73
2023/01/21 10:13:48;;;;;;;;;;;;;;;-145.18;100.00;46691.66;6121601;23;20121;-73
2023/01/21 10:16:34;;;;;;;169.15;39.05;;;;;;;-145.18;100.00;46695.56;6120388;23;19996;-73
2023/01/21 10:19:02;;;;;;;171.05;39.60;;;;;;;-145.18;100.00;46695.56;6121634;23;20009;-74
2023/01/21 10:21:31;;;;;;;166.57;40.80;;;;;;;-145.18;100.00;46697.50;6121894;23;20392;-74
2023/01/21 10:24:05;;;;;;;178.70;43.38;;;;;;;-145.18;100.00;46695.56;6121258;23;20014;-74
2023/01/21 10:26:33;;;;;;;165.25;41.55;;;;;;;-145.18;100.00;46695.56;6121609;23;20455;-74
2023/01/21 10:28:59;;;;;;;172.15;42.38;;;;;;;-145.18;100.00;46693.59;6120288;23;20021;-74
2023/01/21 10:31:27;;;;;;;167.57;40.38;;;;;;;-145.18;100.00;46695.56;6123791;23;20309;-74
2023/01/21 10:33:53;;;;;;;160.30;39.30;;;;;;;-145.18;100.00;46695.56;6122614;23;20006;-74
2023/01/21 10:36:40;;;;;;;161.50;41.38;;;;;;;-145.18;100.00;46695.56;6123704;23;20010;-74
2023/01/21 10:39:08;;;;;;;148.82;39.38;;;;;;;-145.18;100.00;46699.47;6123136;23;20073;-75
2023/01/21 10:41:39;;;;;;;152.07;38.47;;;;;;;-145.18;100.00;46699.47;6123992;23;20013;-75
2023/01/21 10:44:34;;;;;;;140.88;37.40;;;;;;;-145.18;100.00;46699.47;6123054;23;20010;-75
2023/01/21 10:47:05;;;;;;;134.40;36.83;;;;;;;-145.18;100.00;46703.38;6123407;23;20359;-74
2023/01/21 10:49:42;;;;;;;130.25;35.50;;;;;;;-145.18;100.00;46701.41;6123226;23;20006;-75
2023/01/21 10:52:20;;;;;;;128.77;36.28;;;;;;;-145.18;100.00;46703.38;6123078;23;20467;-75
2023/01/21 10:55:19;;;;;;;132.23;34.28;;;;;;;-145.18;100.00;46703.38;6123196;23;20002;-75
2023/01/21 10:57:59;;;;;;;140.32;36.97;;;;;;;-145.18;100.00;46701.41;6069609;23;20018;-75
2023/01/21 11:00:32;;;;;;;110.72;32.83;;;;;;;-145.18;100.00;46703.38;6123124;23;20022;-75
2023/01/21 11:03:07;;;;;;;110.15;33.17;;;;;;;-145.18;100.00;46699.47;6122918;23;20017;-75
2023/01/21 11:05:33;;;;;;;112.25;34.55;;;;;;;-145.18;100.00;46701.41;6123448;23;19998;-75
2023/01/21 11:08:00;;;;;;;113.90;35.43;;;;;;;-145.18;100.00;46705.31;6123225;23;20020;-75
2023/01/21 11:10:26;;;;;;;115.82;36.75;;;;;;;-145.18;100.00;46701.41;6122636;23;20057;-75
2023/01/21 11:12:53;;;;;;;117.30;33.90;;;;;;;-145.18;100.00;46703.38;6122598;23;20061;-75
2023/01/21 11:15:20;;;;;;;108.68;34.70;;;;;;;-145.18;100.00;46701.41;6121593;23;20033;-75
2023/01/21 11:17:48;;;;;;;107.90;35.15;;;;;;;-145.18;100.00;46693.59;6123484;23;20478;-75
2023/01/21 11:20:40;;;;;;;104.97;33.38;;;;;;;-145.18;100.00;46693.59;6123272;23;20013;-75
2023/01/21 11:23:21;;;;;;;102.75;32.47;;;;;;;-145.18;100.00;46687.75;6122691;23;20013;-75
2023/01/21 11:25:47;;;;;;;100.53;34.15;;;;;;;-145.18;100.00;46676.03;6122985;23;20010;-75
2023/01/21 11:28:25;;;;;;;111.25;33.60;;;;;;;-145.18;100.00;46676.03;6123232;23;20010;-74
2023/01/21 11:31:07;;;;;;;92.60;31.88;;;;;;;-145.18;100.00;46660.41;6122376;23;20110;-75
2023/01/21 11:33:33;;;;;;;97.93;31.65;;;;;;;-145.18;100.00;46636.94;6122793;23;20455;-74
2023/01/21 11:36:10;;;;;;;82.45;29.65;;;;;;;-145.18;100.00;46613.50;6122984;23;20006;-74
2023/01/21 11:38:36;;;;;;;85.97;30.27;;;;;;;-145.18;100.00;46592.03;6122633;23;20570;-74
2023/01/21 11:41:04;;;;;;;81.30;27.13;;;;;;;-145.18;100.00;46588.13;6121333;23;20010;-74
2023/01/21 11:43:35;;;;;;;74.07;26.90;;;;;;;-145.18;100.00;46593.97;6122491;23;20077;-74
2023/01/21 11:46:21;;;;;;;82.90;27.48;;;;;;;-145.18;100.00;46595.94;6122426;23;20006;-74
2023/01/21 11:48:46;;;;;;;86.57;28.13;;;;;;;-145.18;100.00;46613.50;6122043;23;20004;-74
2023/01/21 11:51:11;;;;;;;69.53;26.27;;;;;;;-145.18;100.00;46629.13;6118583;23;20013;-75
2023/01/21 11:53:37;;;;;;;80.13;28.53;;;;;;;-145.18;100.00;46638.91;6122213;23;20010;-74
2023/01/21 11:56:03;;;;;;;82.63;30.10;;;;;;;-145.18;100.00;46652.59;6121995;23;20017;-74
2023/01/21 11:58:32;;;;;;;77.53;29.77;;;;;;;-145.18;100.00;46689.69;6122365;23;20020;-74
2023/01/21 12:01:00;;;;;;;74.15;28.35;;;;;;;-145.18;100.00;46697.50;6121440;23;20235;-73
2023/01/21 12:03:50;;;;;;;70.82;26.15;;;;;;;-145.18;100.00;46709.22;6120673;23;20455;-74
2023/01/21 12:06:21;;;;;;;64.80;24.73;;;;;;;-145.18;100.00;46705.31;6121381;23;20006;-73
2023/01/21 12:08:53;;;;;;;70.20;26.07;;;;;;;-145.18;100.00;46726.81;6121788;23;20228;-73
2023/01/21 12:11:23;;;;;;;76.30;27.47;;;;;;;-145.18;100.00;46722.91;6122578;23;20260;-73
2023/01/21 12:14:17;;;;;;;72.93;26.57;;;;;;;-145.18;100.00;46742.44;6120494;23;20243;-73
2023/01/21 12:17:18;;;;;;;71.50;27.27;;;;;;;-145.18;100.00;46771.75;6120903;23;20236;-72
2023/01/21 12:20:10;;;;;;;73.40;28.40;;;;;;;-145.18;100.00;46791.28;6122611;23;20220;-73
2023/01/21 12:22:38;;;;;;;68.73;28.67;;;;;;;-145.18;100.00;46849.88;6122143;23;20318;-73
2023/01/21 12:25:19;;;;;;;69.30;27.10;;;;;;;-145.18;100.00;46855.72;6119234;23;20313;-73
2023/01/21 12:28:32;;;;;;;63.53;26.40;;;;;;;-145.18;100.00;46961.22;6121216;23;20232;-73
2023/01/21 12:31:26;;;;;;;64.77;24.93;;;;;;;-145.18;100.00;47019.81;6094925;23;20244;-73
2023/01/21 12:34:04;;;;;;;63.63;24.77;;;;;;;-145.18;100.00;46976.84;6121933;23;20948;-73
2023/01/21 12:36:44;;;;;;;60.83;23.00;;;;;;;-145.18;100.00;47033.50;6122862;23;20244;-73
2023/01/21 12:39:16;;;;;;;65.80;23.33;;;;;;;-145.18;100.00;47041.31;6121946;23;20232;-73
2023/01/21 12:41:45;;;;;;;67.05;23.17;;;;;;;-145.18;100.00;47004.19;6122363;23;20547;-73
2023/01/21 12:44:36;;;;;;;70.22;25.75;;;;;;;-145.18;100.00;46963.19;6121874;23;20061;-73
2023/01/21 12:47:12;;;;;;;78.55;26.17;;;;;;;-145.18;100.00;46945.59;6121955;23;20002;-74
2023/01/21 12:49:47;;;;;;;;;;;;;;;-145.18;100.00;46906.53;6122869;23;20018;-74
2023/01/21 12:52:29;;;;;;;73.80;24.75;;;;;;;-145.18;100.00;46834.25;6122564;23;19935;-73
2023/01/21 12:55:13;;;;;;;79.32;22.13;;;;;;;-145.18;100.00;46814.72;6119040;23;20010;-74
2023/01/21 12:57:46;;;;;;;69.95;23.83;;;;;;;-145.18;100.00;46783.47;6122319;23;20006;-74
2023/01/21 13:00:19;;;;;;;85.88;26.88;;;;;;;-145.18;100.00;46773.69;6121948;23;20081;-74
2023/01/21 13:02:55;;;;;;;83.63;28.35;;;;;;;-145.18;100.00;46732.66;6121792;23;20069;-75
2023/01/21 13:05:32;;;;;;;80.40;23.00;;;;;;;-145.18;100.00;46717.03;6122231;23;20006;-76
2023/01/21 13:08:23;;;;;;;83.13;24.92;;;;;;;-145.18;100.00;46707.28;6122588;23;20372;-76
2023/01/21 13:10:56;;;;;;;91.93;28.60;;;;;;;-145.18;100.00;46687.75;6121978;23;20056;-77
2023/01/21 13:13:44;;;;;;;87.60;29.35;;;;;;;-145.18;100.00;46660.41;6122271;23;20518;-78
2023/01/21 13:16:10;;;;;;;94.00;29.02;;;;;;;-145.18;100.00;46640.88;6122120;23;20002;-79
2023/01/21 13:18:38;;;;;;;89.93;29.00;;;;;;;-145.18;100.00;46695.56;6122216;23;20014;-80
2023/01/21 13:21:24;;;;;;;80.65;26.23;;;;;;;-145.18;100.00;46703.38;6122421;23;20006;-81
2023/01/21 13:23:59;;;;;;;72.57;26.35;;;;;;;-145.18;100.00;46695.56;6122338;23;20009;-82
2023/01/21 13:26:31;;;;;;;74.97;26.42;;;;;;;-145.18;100.00;46677.97;6122734;23;20002;-83
2023/01/21 13:29:06;;;;;;;70.45;24.98;;;;;;;-145.18;100.00;46642.81;6122361;23;20016;-84
2023/01/21 13:31:51;;;;;;;70.88;25.38;;;;;;;-145.18;100.00;46679.94;6122794;23;20601;-85
2023/01/21 13:34:40;;;;;;;72.43;26.73;;;;;;;-145.18;100.00;46713.13;6121862;23;20076;-83
2023/01/21 13:37:43;;;;;;;72.60;24.90;;;;;;;-145.18;100.00;46717.03;6121962;23;20010;-82
2023/01/21 13:40:31;;;;;;;75.45;26.80;;;;;;;-145.18;100.00;46742.44;6061576;23;20429;-83
2023/01/21 13:43:24;;;;;;;71.88;25.80;;;;;;;-145.18;100.00;46736.56;6120213;23;20044;-81
2023/01/21 13:46:13;;;;;;;71.95;24.65;;;;;;;-145.18;100.00;46730.72;6122024;23;20033;-83
2023/01/21 13:48:52;;;;;;;74.55;26.10;;;;;;;-145.18;100.00;46703.38;6122592;23;20096;-83
2023/01/21 13:51:23;;;;;;;76.72;25.70;;;;;;;-145.18;100.00;46668.22;6120740;23;20340;-82
2023/01/21 13:54:22;;;;;;;73.53;23.58;;;;;;;-145.18;100.00;46662.34;6122158;23;20376;-83
2023/01/21 13:57:09;;;;;;;67.03;25.20;;;;;;;-145.18;100.00;46726.81;6122208;23;20013;-83
2023/01/21 13:59:47;;;;;;;64.18;23.88;;;;;;;-145.18;100.00;46728.75;6121608;23;20448;-82
2023/01/21 14:02:17;;;;;;;66.63;24.27;;;;;;;-145.18;100.00;46769.78;6122163;23;20002;-80
2023/01/21 14:04:59;;;;;;;63.92;24.25;;;;;;;-145.18;100.00;46773.69;6153192;23;20018;-79
2023/01/21 14:07:34;;;;;;;55.75;22.70;;;;;;;-145.18;100.00;46765.88;6152733;23;20036;-79
2023/01/21 14:10:16;;;;;;;61.15;22.55;;;;;;;-145.18;100.00;46769.78;6151194;23;20010;-79
2023/01/21 14:13:21;;;;;;;70.63;22.52;;;;;;;-145.18;100.00;46763.91;6152845;23;20089;-80
2023/01/21 14:16:14;;;;;;;67.97;23.85;;;;;;;-145.18;100.00;46730.72;6149227;23;20450;-77